Time;durP1;ratioP1;P1;durP2;ratioP2;P2;SDS_P1;SDS_P2;PMS_P1;PMS_P2;Temp;Humidity;BMP_temperature;BMP_pressure;BME280_temperature;BME280_humidity;BME280_pressure;Samples;Min_cycle;Max_cycle;Signal;HPM_P1;HPM_P2
2022/05/08 00:02:16;;;;;;;35.00;32.75;;;;;;;7.53;100.00;101694.97;5087536;28;20044;-87
2022/05/08 00:04:58;;;;;;;38.72;36.78;;;;;;;7.47;100.00;101694.75;5086010;28;20053;-86
2022/05/08 00:07:25;;;;;;;36.03;34.15;;;;;;;7.33;100.00;101696.22;5093252;28;20127;-88
2022/05/08 00:10:11;;;;;;;37.53;35.42;;;;;;;7.33;100.00;101688.28;5090840;28;20051;-89
2022/05/08 00:12:44;;;;;;;41.13;38.47;;;;;;;7.24;100.00;101689.25;5091597;28;20492;-91
2022/05/08 00:15:13;;;;;;;51.67;48.30;;;;;;;7.25;100.00;101685.63;5087960;28;20048;-88
2022/05/08 00:17:46;;;;;;;42.15;39.72;;;;;;;7.45;100.00;101694.94;5098236;28;20113;-86
2022/05/08 00:20:23;;;;;;;39.78;37.60;;;;;;;7.29;100.00;101689.56;5096302;28;20455;-86
2022/05/08 00:22:52;;;;;;;41.42;39.20;;;;;;;7.14;100.00;101685.91;5093176;28;20419;-86
2022/05/08 00:25:22;;;;;;;45.55;43.00;;;;;;;7.14;100.00;101683.25;5086686;28;20052;-85
2022/05/08 00:27:56;;;;;;;40.40;38.40;;;;;;;7.10;100.00;101686.22;5097353;28;20051;-87
2022/05/08 00:30:28;;;;;;;40.63;38.15;;;;;;;7.07;100.00;101691.81;5081448;28;20045;-86
2022/05/08 00:33:04;;;;;;;39.22;37.08;;;;;;;6.73;100.00;101699.75;5087550;28;20047;-86
2022/05/08 00:35:46;;;;;;;43.28;41.08;;;;;;;6.73;100.00;101696.28;5088541;28;20049;-86
2022/05/08 00:38:21;;;;;;;36.78;34.90;;;;;;;6.64;100.00;101700.69;5092286;28;20036;-86
2022/05/08 00:40:56;;;;;;;56.53;51.70;;;;;;;6.55;100.00;101688.44;5095064;28;20055;-88
2022/05/08 00:43:33;;;;;;;33.55;31.25;;;;;;;6.75;100.00;101699.59;5095810;28;20052;-88
2022/05/08 00:46:08;;;;;;;56.95;51.70;;;;;;;6.61;100.00;101685.16;5081741;28;20504;-88
2022/05/08 00:48:47;;;;;;;50.38;45.95;;;;;;;6.75;100.00;101678.47;5093916;28;20391;-86
2022/05/08 00:51:17;;;;;;;43.72;40.53;;;;;;;6.63;100.00;101685.84;5096498;28;20109;-86
2022/05/08 00:54:04;;;;;;;50.88;46.67;;;;;;;6.59;100.00;101687.94;5089016;28;20083;-86
2022/05/08 00:56:34;;;;;;;53.08;48.85;;;;;;;6.52;100.00;101676.34;5089868;28;20076;-89
2022/05/08 00:59:03;;;;;;;58.28;52.55;;;;;;;6.52;100.00;101683.47;5087992;28;20052;-90
2022/05/08 01:01:40;;;;;;;51.35;47.28;;;;;;;6.78;100.00;101681.63;5089836;28;20056;-90
2022/05/08 01:04:22;;;;;;;46.35;43.92;;;;;;;6.20;100.00;101674.31;5086985;28;20067;-90
2022/05/08 01:07:03;;;;;;;41.72;39.38;;;;;;;5.98;100.00;101675.66;5091284;28;20131;-86
2022/05/08 01:09:50;;;;;;;36.35;34.35;;;;;;;5.67;100.00;101675.19;5082083;28;20127;-88
2022/05/08 01:12:28;;;;;;;32.63;30.63;;;;;;;5.68;100.00;101680.28;5091593;28;20469;-86
2022/05/08 01:15:22;;;;;;;39.55;37.33;;;;;;;5.86;100.00;101680.28;5083440;28;20131;-89
2022/05/08 01:17:58;;;;;;;35.08;32.90;;;;;;;5.51;100.00;101676.69;5095788;28;20040;-85
2022/05/08 01:20:38;;;;;;;40.13;37.92;;;;;;;5.61;100.00;101663.41;5097723;28;20129;-89
2022/05/08 01:23:21;;;;;;;43.85;41.25;;;;;;;5.59;100.00;101665.38;5092508;28;20047;-89
2022/05/08 01:26:28;;;;;;;;;;;;;;;5.39;100.00;101677.88;5095437;28;20239;-86
2022/05/08 01:29:04;;;;;;;38.47;36.15;;;;;;;5.18;100.00;101678.13;5079881;28;19985;-85
2022/05/08 01:31:41;;;;;;;42.53;40.22;;;;;;;5.17;100.00;101683.53;5077440;28;20143;-86
2022/05/08 01:34:15;;;;;;;35.65;33.60;;;;;;;5.56;100.00;101673.56;5079001;28;20695;-87
2022/05/08 01:36:45;;;;;;;32.33;29.83;;;;;;;5.39;100.00;101672.59;5098333;28;20488;-89
2022/05/08 01:39:22;;;;;;;34.92;32.70;;;;;;;5.29;100.00;101679.72;5089358;28;20052;-88
2022/05/08 01:41:52;;;;;;;32.53;30.73;;;;;;;5.54;100.00;101683.47;5087091;28;20057;-89
2022/05/08 01:44:24;;;;;;;38.63;36.22;;;;;;;5.33;100.00;101675.81;5091888;28;20436;-88
2022/05/08 01:50:03;;;;;;;40.47;38.03;;;;;;;5.46;100.00;101664.91;5096478;28;20051;-87
2022/05/08 01:52:37;;;;;;;36.00;33.90;;;;;;;5.15;100.00;101670.53;5096288;28;20075;-85
2022/05/08 01:55:11;;;;;;;35.78;33.67;;;;;;;5.10;100.00;101669.28;5095706;28;20052;-88
2022/05/08 01:57:38;;;;;;;37.00;34.78;;;;;;;5.22;100.00;101670.75;5076534;28;20106;-86
2022/05/08 02:03:05;;;;;;;41.03;38.45;;;;;;;5.39;100.00;101677.03;5067489;22;20050;-87
2022/05/08 02:05:44;;;;;;;63.35;59.97;;;;;;;5.33;100.00;101669.75;5055866;28;20049;-85
2022/05/08 02:08:21;;;;;;;39.47;36.95;;;;;;;4.70;100.00;101681.81;5050304;28;20064;-88
2022/05/08 02:10:59;;;;;;;50.10;47.28;;;;;;;5.09;100.00;101686.91;5058813;28;20045;-85
2022/05/08 02:13:43;;;;;;;47.78;44.95;;;;;;;5.15;100.00;101690.75;5054640;28;20053;-89
2022/05/08 02:16:16;;;;;;;40.00;37.63;;;;;;;5.21;100.00;101691.00;5055597;28;20362;-84
2022/05/08 02:19:33;;;;;;;37.88;35.38;;;;;;;4.86;100.00;101681.19;5058954;28;20052;-89
2022/05/08 02:22:08;;;;;;;32.67;30.60;;;;;;;5.14;100.00;101689.09;5070224;28;20049;-85
2022/05/08 02:24:38;;;;;;;34.60;31.90;;;;;;;4.85;100.00;101687.44;5047372;28;20119;-84
2022/05/08 02:27:13;;;;;;;36.47;34.22;;;;;;;4.62;100.00;101696.66;5059901;28;20060;-88
2022/05/08 02:29:42;;;;;;;44.13;41.30;;;;;;;4.83;100.00;101692.00;5049940;28;20046;-85
2022/05/08 02:32:20;;;;;;;41.50;38.83;;;;;;;4.89;100.00;101693.22;5055452;28;20394;-84
2022/05/08 02:34:54;;;;;;;34.47;32.58;;;;;;;4.78;100.00;101692.44;5058154;28;20053;-86
2022/05/08 02:37:50;;;;;;;32.58;30.48;;;;;;;4.70;100.00;101687.06;5071214;28;20048;-86
2022/05/08 02:43:40;;;;;;;35.95;33.65;;;;;;;3.93;100.00;101676.69;5038925;28;20480;-87
2022/05/08 02:46:30;;;;;;;34.72;32.35;;;;;;;4.30;100.00;101680.25;5059103;28;20060;-87
2022/05/08 02:49:08;;;;;;;36.70;34.20;;;;;;;4.13;100.00;101684.41;5042613;28;20057;-88
2022/05/08 02:51:35;;;;;;;34.97;32.83;;;;;;;4.12;100.00;101679.31;5056490;28;20048;-87
2022/05/08 02:54:30;;;;;;;35.13;32.55;;;;;;;4.23;100.00;101687.03;5066715;28;20122;-84
2022/05/08 03:00:09;;;;;;;31.40;29.15;;;;;;;3.93;100.00;101685.38;5037624;28;20512;-85
2022/05/08 03:02:42;;;;;;;30.00;28.13;;;;;;;4.15;100.00;101688.72;5036731;28;20421;-88
2022/05/08 03:05:16;;;;;;;30.75;28.60;;;;;;;4.17;100.00;101698.09;5041433;28;20045;-88
2022/05/08 03:07:45;;;;;;;30.67;28.45;;;;;;;4.20;100.00;101699.63;5063551;28;20577;-89
2022/05/08 03:11:25;;;;;;;29.60;27.65;;;;;;;4.16;100.00;101698.25;5079952;28;20119;-87
2022/05/08 03:13:21;;;;;;;32.38;29.55;;;;;;;3.84;100.00;101694.97;5054430;28;20049;-85
2022/05/08 03:16:28;;;;;;;31.10;28.80;;;;;;;4.10;100.00;101695.22;5069846;28;20059;-85
2022/05/08 03:19:33;;;;;;;29.38;27.38;;;;;;;4.27;100.00;101698.94;5043494;28;20037;-87
2022/05/08 03:22:27;;;;;;;27.83;26.23;;;;;;;3.81;100.00;101705.75;5050105;28;20056;-87
2022/05/08 03:25:06;;;;;;;28.40;25.88;;;;;;;4.07;100.00;101718.31;5043135;28;20079;-85
2022/05/08 03:27:39;;;;;;;30.48;28.35;;;;;;;4.65;100.00;101717.41;5053022;28;20087;-89
2022/05/08 03:30:18;;;;;;;30.42;28.48;;;;;;;4.51;100.00;101708.19;5047083;28;20053;-87
2022/05/08 03:32:58;;;;;;;26.65;24.85;;;;;;;4.35;100.00;101712.19;5058219;28;20499;-87
2022/05/08 03:35:28;;;;;;;26.10;24.40;;;;;;;4.45;100.00;101717.47;5051526;28;20087;-88
2022/05/08 03:38:25;;;;;;;27.67;25.30;;;;;;;4.36;100.00;101713.06;5040438;28;20107;-89
2022/05/08 03:41:04;;;;;;;28.02;25.90;;;;;;;3.86;100.00;101724.53;5072425;28;20060;-86
2022/05/08 03:43:38;;;;;;;27.65;25.85;;;;;;;3.74;100.00;101733.53;5056405;28;20079;-85
2022/05/08 03:46:11;;;;;;;28.88;26.98;;;;;;;4.31;100.00;101736.31;5051034;28;20492;-88
2022/05/08 03:48:42;;;;;;;28.48;26.60;;;;;;;4.43;100.00;101736.97;5054057;28;20052;-85
2022/05/08 03:51:15;;;;;;;28.50;26.52;;;;;;;4.27;100.00;101741.03;5050881;28;20416;-88
2022/05/08 03:54:02;;;;;;;28.65;26.60;;;;;;;4.41;100.00;101739.75;5054462;28;20049;-85
2022/05/08 03:56:43;;;;;;;29.20;27.23;;;;;;;4.76;100.00;101743.56;5054951;28;20044;-85
2022/05/08 03:59:10;;;;;;;29.40;27.40;;;;;;;4.74;100.00;101748.97;5054461;28;20041;-84
2022/05/08 04:01:37;;;;;;;29.17;27.23;;;;;;;4.56;100.00;101750.66;5054680;28;20084;-88
2022/05/08 04:04:04;;;;;;;29.25;27.55;;;;;;;4.75;100.00;101752.41;5053819;28;20041;-84
2022/05/08 04:06:31;;;;;;;29.35;26.73;;;;;;;4.88;100.00;101750.31;5050608;28;20389;-86
2022/05/08 04:09:06;;;;;;;28.13;25.98;;;;;;;4.61;100.00;101752.88;5055092;28;20045;-86
2022/05/08 04:11:40;;;;;;;29.98;27.27;;;;;;;4.74;100.00;101743.69;5054482;28;20056;-86
2022/05/08 04:14:12;;;;;;;27.92;25.80;;;;;;;4.59;100.00;101742.47;5046490;28;20523;-88
2022/05/08 04:16:39;;;;;;;28.30;25.95;;;;;;;4.85;100.00;101745.34;5046578;28;20060;-87
2022/05/08 04:19:19;;;;;;;29.17;27.27;;;;;;;5.02;100.00;101743.75;5048018;28;20045;-84
2022/05/08 04:25:05;;;;;;;28.75;26.30;;;;;;;5.00;100.00;101756.25;5047128;28;20543;-87
2022/05/08 04:27:44;;;;;;;28.83;26.50;;;;;;;4.88;100.00;101749.50;5049018;28;20048;-87
2022/05/08 04:30:19;;;;;;;28.88;26.83;;;;;;;5.09;100.00;101746.66;5055239;28;20041;-88
2022/05/08 04:32:52;;;;;;;27.70;25.73;;;;;;;5.21;100.00;101758.66;5055364;28;20049;-85
2022/05/08 04:35:20;;;;;;;31.75;29.25;;;;;;;5.41;100.00;101754.13;5047753;28;20539;-87
2022/05/08 04:37:49;;;;;;;29.60;27.08;;;;;;;5.37;100.00;101755.41;5049800;28;20049;-84
2022/05/08 04:40:26;;;;;;;29.17;27.17;;;;;;;5.45;100.00;101758.13;5050792;28;20060;-85
2022/05/08 04:42:53;;;;;;;28.95;26.83;;;;;;;5.35;100.00;101759.97;5043236;28;20053;-88
2022/05/08 04:45:31;;;;;;;29.08;26.80;;;;;;;5.25;100.00;101758.22;5047718;28;20057;-84
2022/05/08 04:48:45;;;;;;;28.83;26.58;;;;;;;5.66;100.00;101760.50;5044026;28;20055;-88
2022/05/08 04:51:13;;;;;;;27.85;25.95;;;;;;;5.87;100.00;101763.69;5048251;28;20049;-88
2022/05/08 04:53:42;;;;;;;27.17;25.33;;;;;;;5.99;100.00;101760.84;5057029;28;20084;-87
2022/05/08 04:56:17;;;;;;;26.27;24.48;;;;;;;6.05;100.00;101765.53;5047059;28;20454;-87
2022/05/08 04:58:53;;;;;;;37.58;33.58;;;;;;;6.28;100.00;101765.91;5047660;28;20077;-86
2022/05/08 05:01:22;;;;;;;43.22;39.50;;;;;;;6.31;100.00;101762.97;5054067;28;20921;-85
2022/05/08 05:03:49;;;;;;;40.53;37.15;;;;;;;6.35;100.00;101767.78;5048017;28;20191;-84
2022/05/08 05:06:18;;;;;;;43.90;40.05;;;;;;;6.53;100.00;101762.47;5019025;28;20057;-88
2022/05/08 05:09:17;;;;;;;34.65;31.30;;;;;;;6.86;100.00;101765.34;5061939;28;20045;-87
2022/05/08 05:11:59;;;;;;;28.58;26.52;;;;;;;6.83;100.00;101770.94;4992750;28;20472;-86
2022/05/08 05:14:50;;;;;;;35.95;33.08;;;;;;;7.08;100.00;101771.91;5042883;28;20118;-85
2022/05/08 05:17:18;;;;;;;33.20;30.60;;;;;;;7.49;100.00;101770.28;5045959;28;20061;-86
2022/05/08 05:20:41;;;;;;;27.88;25.95;;;;;;;7.11;100.00;101776.91;5045924;28;20048;-87
2022/05/08 05:23:15;;;;;;;28.10;25.98;;;;;;;7.14;100.00;101776.56;5049552;28;20460;-87
2022/05/08 05:25:55;;;;;;;29.23;26.77;;;;;;;7.17;100.00;101780.69;5053933;28;20106;-86
2022/05/08 05:28:30;;;;;;;28.60;26.45;;;;;;;7.36;100.00;101782.28;5050398;28;20113;-86
2022/05/08 05:31:25;;;;;;;27.85;25.77;;;;;;;7.61;100.00;101780.56;5059044;28;20132;-84
2022/05/08 05:33:52;;;;;;;28.33;25.95;;;;;;;7.45;100.00;101776.06;5061304;28;20052;-82
2022/05/08 05:36:20;;;;;;;27.90;25.88;;;;;;;7.47;100.00;101787.28;5048792;28;20061;-83
2022/05/08 05:39:00;;;;;;;28.23;25.80;;;;;;;7.98;100.00;101780.16;5049947;28;20045;-85
2022/05/08 05:41:29;;;;;;;27.80;25.90;;;;;;;8.03;100.00;101780.50;5063821;28;20056;-82
2022/05/08 05:43:59;;;;;;;27.95;25.98;;;;;;;8.29;100.00;101776.88;5049575;28;20041;-85
2022/05/08 05:49:27;;;;;;;27.65;25.73;;;;;;;8.38;100.00;101773.22;5056119;28;20056;-84
2022/05/08 05:52:00;;;;;;;27.83;25.63;;;;;;;8.67;100.00;101764.81;5061508;28;20439;-83
2022/05/08 05:54:29;;;;;;;27.50;25.40;;;;;;;8.44;100.00;101769.94;5050948;28;20470;-83
2022/05/08 05:57:11;;;;;;;27.15;25.15;;;;;;;8.76;100.00;101765.63;5054175;28;20045;-83
2022/05/08 06:00:03;;;;;;;28.02;25.90;;;;;;;9.02;100.00;101768.06;5059383;28;20114;-87
2022/05/08 06:02:32;;;;;;;27.90;25.73;;;;;;;8.93;100.00;101773.38;5046383;28;20056;-83
2022/05/08 06:05:06;;;;;;;29.27;26.83;;;;;;;8.99;100.00;101763.09;5030358;28;20509;-84
2022/05/08 06:07:41;;;;;;;28.52;26.27;;;;;;;9.49;100.00;101764.56;5044569;28;20053;-85
2022/05/08 06:10:23;;;;;;;28.52;26.65;;;;;;;9.25;100.00;101765.50;5041983;28;20049;-84
2022/05/08 06:12:58;;;;;;;27.70;25.63;;;;;;;9.51;100.00;101774.00;5037611;28;20049;-84
2022/05/08 06:15:31;;;;;;;28.33;26.23;;;;;;;9.79;100.00;101776.19;5030956;28;20076;-85
2022/05/08 06:18:20;;;;;;;28.42;26.02;;;;;;;10.08;100.00;101760.41;5039806;28;20061;-86
2022/05/08 06:21:15;;;;;;;28.38;25.92;;;;;;;9.96;100.00;101767.13;5031455;28;20045;-87
2022/05/08 06:23:45;;;;;;;30.77;28.40;;;;;;;10.08;100.00;101763.06;5027558;28;20046;-85
2022/05/08 06:26:18;;;;;;;28.17;26.13;;;;;;;9.81;100.00;101766.22;5039581;28;20056;-86
2022/05/08 06:28:48;;;;;;;27.35;25.38;;;;;;;10.03;100.00;101762.75;5045450;28;20131;-86
2022/05/08 06:31:34;;;;;;;28.70;26.52;;;;;;;10.49;100.00;101756.59;5038361;28;20064;-83
2022/05/08 06:34:01;;;;;;;30.10;27.55;;;;;;;10.74;100.00;101755.38;5041142;28;20461;-84
2022/05/08 06:36:32;;;;;;;32.38;29.38;;;;;;;11.02;100.00;101757.41;5035517;28;20053;-86
2022/05/08 06:39:04;;;;;;;28.02;26.05;;;;;;;10.61;100.00;101760.47;5042820;28;20454;-85
2022/05/08 06:41:54;;;;;;;30.20;28.20;;;;;;;10.96;100.00;101758.97;5038647;28;20072;-87
2022/05/08 06:44:32;;;;;;;28.77;26.70;;;;;;;10.69;100.00;101759.59;5036921;28;20049;-85
2022/05/08 06:47:11;;;;;;;28.40;26.15;;;;;;;10.74;100.00;101752.72;5024650;28;20053;-87
2022/05/08 06:50:08;;;;;;;28.65;26.70;;;;;;;11.18;100.00;101762.53;5042417;28;20103;-89
2022/05/08 06:52:48;;;;;;;30.60;27.90;;;;;;;10.98;100.00;101764.94;5034322;28;20144;-85
2022/05/08 06:55:24;;;;;;;28.17;26.23;;;;;;;10.95;100.00;101764.44;5043197;28;20053;-86
2022/05/08 07:01:34;;;;;;;28.70;26.70;;;;;;;11.76;100.00;101761.78;5023871;28;20091;-86
2022/05/08 07:01:52;;;;;;;;;;;;;;;;;;;;;
2022/05/08 07:04:30;;;;;;;30.93;28.53;;;;;;;11.00;100.00;101760.25;5035969;28;20060;-85
2022/05/08 07:07:04;;;;;;;30.05;27.92;;;;;;;11.26;100.00;101769.59;5039381;28;20477;-84
2022/05/08 07:09:39;;;;;;;29.60;27.38;;;;;;;11.84;100.00;101764.34;5042482;28;20049;-88
2022/05/08 07:12:42;;;;;;;28.67;26.48;;;;;;;11.97;100.00;101766.34;5045551;28;20036;-87
2022/05/08 07:15:20;;;;;;;29.27;27.17;;;;;;;11.66;100.00;101770.09;5039090;28;20053;-86
2022/05/08 07:18:15;;;;;;;29.55;27.27;;;;;;;11.34;100.00;101771.31;5045257;28;20045;-86
2022/05/08 07:20:47;;;;;;;28.58;26.67;;;;;;;11.80;100.00;101765.72;5033461;28;20049;-87
2022/05/08 07:23:20;;;;;;;30.13;27.57;;;;;;;12.27;100.00;101777.69;5041907;28;20053;-85
2022/05/08 07:26:16;;;;;;;33.40;30.45;;;;;;;12.15;100.00;101764.88;5040075;28;20076;-86
2022/05/08 07:29:13;;;;;;;;;;;;;;;;;;;;;
2022/05/08 07:37:57;;;;;;;34.90;31.27;;;;;;;12.52;100.00;101770.94;5039805;28;20052;-88
2022/05/08 07:44:16;;;;;;;34.20;32.20;;;;;;;13.03;100.00;101776.00;4939225;28;20125;-90
2022/05/08 07:47:24;;;;;;;35.10;32.55;;;;;;;12.37;100.00;101770.19;4997229;28;20053;-86
2022/05/08 07:50:14;;;;;;;33.78;31.58;;;;;;;13.14;100.00;101771.16;4981152;28;20039;-88
2022/05/08 07:52:58;;;;;;;;;;;;;;;;;;;;;
2022/05/08 07:55:45;;;;;;;;;;;;;;;;;;;;;
2022/05/08 07:58:51;;;;;;;30.98;28.67;;;;;;;13.17;100.00;101776.09;5024629;28;20056;-89
2022/05/08 08:01:30;;;;;;;32.15;29.75;;;;;;;13.15;100.00;101767.47;4945642;29;20127;-85
2022/05/08 08:04:26;;;;;;;31.13;28.67;;;;;;;13.47;100.00;101776.69;4939173;29;20127;-88
2022/05/08 08:10:29;;;;;;;29.60;27.60;;;;;;;13.46;100.00;101781.19;4946105;28;20056;-87
2022/05/08 08:13:30;;;;;;;;;;;;;;;;;;;;;
2022/05/08 08:16:21;;;;;;;28.98;27.13;;;;;;;13.96;100.00;101778.25;5023244;28;20136;-86
2022/05/08 08:19:08;;;;;;;;;;;;;;;;;;;;;
2022/05/08 08:21:40;;;;;;;34.67;31.95;;;;;;;14.17;100.00;101782.59;5039812;28;20050;-86
2022/05/08 08:24:27;;;;;;;31.70;29.40;;;;;;;14.29;100.00;101777.50;5031341;28;20046;-86
2022/05/08 08:27:04;;;;;;;30.40;28.30;;;;;;;14.17;100.00;101790.63;5030854;28;20482;-87
2022/05/08 08:29:37;;;;;;;31.50;28.58;;;;;;;14.28;100.00;101781.16;5026910;28;20135;-85
2022/05/08 08:32:10;;;;;;;30.02;27.77;;;;;;;14.36;100.00;101778.31;5044278;28;20054;-85
2022/05/08 08:34:38;;;;;;;30.55;28.50;;;;;;;14.27;100.00;101784.88;5027764;28;20046;-85
2022/05/08 08:37:35;;;;;;;30.02;28.02;;;;;;;14.78;100.00;101779.75;5035215;28;20041;-86
2022/05/08 08:40:04;;;;;;;30.42;28.30;;;;;;;15.22;100.00;101767.53;5043553;28;20041;-84
2022/05/08 08:42:44;;;;;;;32.20;29.92;;;;;;;14.98;100.00;101768.22;5034423;28;20519;-83
2022/05/08 08:48:23;;;;;;;30.17;27.95;;;;;;;15.04;100.00;101764.69;5029797;28;20093;-82
2022/05/08 08:50:50;;;;;;;30.70;28.50;;;;;;;15.24;100.00;101765.44;5039296;28;20551;-83
2022/05/08 08:53:31;;;;;;;30.95;28.98;;;;;;;15.46;100.00;101762.47;5034265;28;20119;-85
2022/05/08 08:56:03;;;;;;;31.58;28.80;;;;;;;16.02;100.00;101765.28;5035488;28;20071;-85
2022/05/08 08:58:36;;;;;;;30.83;28.50;;;;;;;16.10;100.00;101761.53;5047573;28;20060;-85
2022/05/08 09:04:05;;;;;;;;;;;;;;;15.99;100.00;101757.66;5072520;28;20496;-83
2022/05/08 09:06:43;;;;;;;30.42;28.42;;;;;;;15.85;100.00;101755.28;5061211;28;20396;-86
2022/05/08 09:09:34;;;;;;;29.42;27.48;;;;;;;16.29;100.00;101756.22;5052301;28;20480;-85
2022/05/08 09:12:19;;;;;;;30.30;28.40;;;;;;;16.23;100.00;101753.38;5056287;28;20452;-84
2022/05/08 09:14:57;;;;;;;30.38;28.35;;;;;;;16.33;100.00;101750.19;5065855;28;20060;-86
2022/05/08 09:17:47;;;;;;;29.98;27.92;;;;;;;16.28;100.00;101752.75;5059340;28;20067;-85
2022/05/08 09:20:40;;;;;;;30.05;27.70;;;;;;;16.78;100.00;101752.72;5048900;28;20063;-87
2022/05/08 09:23:25;;;;;;;30.67;28.58;;;;;;;17.24;99.84;101747.88;5055689;28;20046;-86
2022/05/08 09:26:26;;;;;;;30.20;28.00;;;;;;;17.42;95.86;101747.03;5047725;28;20477;-88
2022/05/08 09:28:55;;;;;;;29.08;27.23;;;;;;;17.58;99.70;101744.56;5043588;28;20474;-85
2022/05/08 09:31:41;;;;;;;29.83;27.63;;;;;;;17.90;93.14;101740.81;5045801;28;20119;-86
2022/05/08 09:34:48;;;;;;;30.85;28.63;;;;;;;17.82;89.44;101737.41;5057438;28;20060;-87
2022/05/08 09:37:27;;;;;;;30.52;28.52;;;;;;;18.18;88.53;101743.66;5024650;28;20485;-84
2022/05/08 09:40:21;;;;;;;31.58;29.45;;;;;;;18.45;84.64;101727.91;5051037;28;20041;-83
2022/05/08 09:42:50;;;;;;;30.27;28.30;;;;;;;18.10;87.04;101722.53;5050614;28;20075;-84
2022/05/08 09:45:35;;;;;;;30.05;27.98;;;;;;;18.18;85.91;101727.53;5044817;28;20405;-84
2022/05/08 09:48:22;;;;;;;29.70;27.77;;;;;;;19.01;87.00;101717.59;5052802;28;20500;-87
2022/05/08 09:51:03;;;;;;;31.00;28.85;;;;;;;19.63;82.62;101712.31;5042645;28;20041;-84
2022/05/08 09:53:49;;;;;;;30.98;28.90;;;;;;;19.32;76.43;101719.00;5053840;28;20064;-84
2022/05/08 09:56:31;;;;;;;30.33;28.52;;;;;;;19.07;76.32;101711.25;5058311;28;20049;-82
2022/05/08 09:59:07;;;;;;;31.00;28.63;;;;;;;19.60;75.29;101703.91;5055002;28;20447;-83
2022/05/08 10:01:37;;;;;;;30.73;28.92;;;;;;;18.95;76.27;101700.50;5057825;28;20550;-86
2022/05/08 10:04:08;;;;;;;31.52;29.13;;;;;;;19.16;74.08;101700.94;5055450;28;20048;-86
2022/05/08 10:07:01;;;;;;;29.83;27.75;;;;;;;19.63;72.95;101709.63;5053295;28;20083;-84
2022/05/08 10:15:48;;;;;;;30.83;28.60;;;;;;;19.40;81.58;101697.09;5061875;28;20056;-84
2022/05/08 10:18:38;;;;;;;32.38;29.70;;;;;;;19.55;87.77;101691.16;5060431;28;20083;-85
2022/05/08 10:21:39;;;;;;;31.05;28.73;;;;;;;20.22;96.23;101695.00;5056969;28;20075;-84
2022/05/08 10:24:47;;;;;;;31.23;28.58;;;;;;;20.38;89.64;101682.53;5068283;28;20049;-85
2022/05/08 10:27:36;;;;;;;34.65;32.05;;;;;;;21.36;97.03;101680.00;5062075;28;20052;-88
2022/05/08 10:30:26;;;;;;;30.90;28.52;;;;;;;21.41;96.26;101685.47;5071788;28;20044;-84
2022/05/08 10:33:25;;;;;;;31.05;28.80;;;;;;;22.01;89.02;101672.75;5068265;28;20090;-86
2022/05/08 10:36:17;;;;;;;31.67;29.27;;;;;;;21.91;82.17;101674.31;5071399;28;20049;-86
2022/05/08 10:39:42;;;;;;;32.47;30.33;;;;;;;21.46;71.14;101663.91;5070816;28;20111;-88
2022/05/08 10:43:01;;;;;;;34.50;30.80;;;;;;;21.38;79.40;101669.78;5014707;28;20054;-87
2022/05/08 10:46:23;;;;;;;31.90;29.50;;;;;;;21.84;83.16;101652.06;5033187;28;20490;-84
2022/05/08 10:49:06;;;;;;;;;;;;;;;;;;;;;
2022/05/08 10:51:45;;;;;;;;;;;;;;;21.18;83.74;101662.22;5066505;28;20116;-87
2022/05/08 10:54:16;;;;;;;31.13;29.05;;;;;;;21.33;77.85;101661.56;5061497;28;19982;-83
2022/05/08 10:56:52;;;;;;;31.10;29.00;;;;;;;21.56;80.31;101653.19;5052312;28;20057;-85
2022/05/08 10:59:30;;;;;;;33.05;30.58;;;;;;;21.70;75.08;101651.69;5063254;28;20045;-84
2022/05/08 11:01:58;;;;;;;32.30;30.27;;;;;;;21.57;76.32;101657.50;5054302;28;20042;-81
2022/05/08 11:04:27;;;;;;;31.02;29.08;;;;;;;21.86;72.32;101652.63;5042275;28;20045;-84
2022/05/08 11:07:21;;;;;;;31.05;28.95;;;;;;;21.69;75.88;101638.44;5044425;28;20061;-86
2022/05/08 11:10:00;;;;;;;33.95;30.40;;;;;;;22.32;74.28;101634.03;5043820;28;20149;-86
2022/05/08 11:12:30;;;;;;;32.67;29.75;;;;;;;22.60;73.79;101642.81;5063902;28;20053;-85
2022/05/08 11:15:18;;;;;;;31.35;28.90;;;;;;;22.19;70.15;101642.63;5058882;28;20053;-82
2022/05/08 11:18:09;;;;;;;32.10;29.73;;;;;;;22.07;71.13;101631.94;5054777;28;20045;-89
2022/05/08 11:20:48;;;;;;;32.75;30.35;;;;;;;22.01;72.15;101641.13;5069188;28;20072;-88
2022/05/08 11:23:18;;;;;;;30.25;28.45;;;;;;;22.13;69.44;101630.91;5052726;28;20116;-88
2022/05/08 11:25:50;;;;;;;32.17;29.42;;;;;;;22.86;69.40;101624.78;5065125;28;20048;-87
2022/05/08 11:28:29;;;;;;;31.10;29.20;;;;;;;21.77;71.59;101631.75;5060320;28;20118;-86
2022/05/08 11:31:14;;;;;;;31.42;29.40;;;;;;;22.81;66.24;101624.75;5064090;28;20045;-87
2022/05/08 11:36:45;;;;;;;30.98;28.77;;;;;;;22.80;64.45;101610.41;5055383;28;20044;-88
2022/05/08 11:39:18;;;;;;;30.45;28.50;;;;;;;22.90;62.85;101609.63;5054707;28;20049;-88
2022/05/08 11:41:52;;;;;;;30.65;28.55;;;;;;;21.28;63.11;101619.13;5052263;28;20050;-87
2022/05/08 11:44:23;;;;;;;31.70;29.80;;;;;;;22.42;58.09;101603.47;5059229;28;20049;-89
2022/05/08 11:46:57;;;;;;;34.53;31.98;;;;;;;22.71;58.64;101587.63;5052269;28;20045;-87
2022/05/08 11:49:42;;;;;;;31.50;29.40;;;;;;;22.97;53.86;101599.38;5066401;28;20045;-86
2022/05/08 11:52:20;;;;;;;56.03;50.55;;;;;;;23.34;54.72;101589.41;5059567;28;20049;-87
2022/05/08 11:55:03;;;;;;;34.05;31.23;;;;;;;22.58;50.24;101580.03;5063622;28;20116;-88
2022/05/08 11:57:51;;;;;;;38.03;34.75;;;;;;;22.18;51.49;101587.69;5060442;28;20087;-86
2022/05/08 12:01:01;;;;;;;31.08;28.95;;;;;;;22.96;47.33;101577.97;5041120;28;20084;-88
2022/05/08 12:03:30;;;;;;;31.33;28.67;;;;;;;23.07;47.30;101577.72;5067361;28;20122;-87
2022/05/08 12:06:16;;;;;;;31.95;29.48;;;;;;;22.93;49.27;101573.88;5056862;28;20046;-85
2022/05/08 12:08:44;;;;;;;31.45;29.23;;;;;;;23.18;47.75;101575.00;5059778;28;20448;-88
2022/05/08 12:11:30;;;;;;;31.23;29.17;;;;;;;22.76;43.96;101571.41;5064746;28;20045;-86
2022/05/08 12:14:13;;;;;;;31.33;29.10;;;;;;;23.14;45.75;101563.91;5051453;28;20440;-86
2022/05/08 12:17:01;;;;;;;30.50;28.60;;;;;;;22.25;48.46;101568.50;5040174;28;20152;-89
2022/05/08 12:19:51;;;;;;;30.25;28.27;;;;;;;23.25;41.25;101565.56;5039625;28;20049;-87
2022/05/08 12:22:30;;;;;;;31.35;28.88;;;;;;;22.50;45.45;101559.69;5039891;28;20105;-88
2022/05/08 12:25:03;;;;;;;32.47;30.02;;;;;;;21.63;48.42;101558.38;5037847;28;20132;-87
2022/05/08 12:27:48;;;;;;;30.75;28.48;;;;;;;23.01;45.52;101553.59;5055553;28;20130;-86
2022/05/08 12:30:19;;;;;;;31.63;29.52;;;;;;;22.71;46.37;101562.44;5041777;28;20067;-89
2022/05/08 12:33:08;;;;;;;30.83;28.48;;;;;;;22.45;45.17;101559.69;5057182;28;20052;-87
2022/05/08 12:35:45;;;;;;;33.28;30.27;;;;;;;22.56;46.94;101557.81;5046901;28;20053;-88
2022/05/08 12:42:15;;;;;;;30.60;28.00;;;;;;;21.63;50.12;101551.06;5049516;28;20575;-89
2022/05/08 12:45:06;;;;;;;30.20;28.10;;;;;;;22.43;45.83;101555.59;5061648;28;20041;-88
2022/05/08 12:47:47;;;;;;;30.35;28.05;;;;;;;22.42;43.77;101543.94;5061850;28;20088;-89
2022/05/08 12:53:44;;;;;;;29.98;27.85;;;;;;;22.26;43.69;101532.25;5058554;28;20102;-85
2022/05/08 12:56:19;;;;;;;29.67;27.55;;;;;;;22.50;44.14;101545.34;5063781;28;20117;-89
2022/05/08 13:02:11;;;;;;;30.30;27.95;;;;;;;21.81;42.64;101530.09;5058703;28;20055;-87
2022/05/08 13:04:44;;;;;;;30.77;28.50;;;;;;;22.47;45.62;101532.34;5036222;28;20053;-89
2022/05/08 13:07:27;;;;;;;30.33;28.08;;;;;;;22.03;43.65;101529.94;5041582;28;20056;-89
2022/05/08 13:10:07;;;;;;;29.58;27.67;;;;;;;21.91;43.26;101528.28;5031447;28;20057;-89
2022/05/08 13:12:47;;;;;;;31.25;28.98;;;;;;;21.79;46.09;101527.66;5020779;28;20106;-90
2022/05/08 13:15:27;;;;;;;29.48;27.27;;;;;;;21.91;44.34;101530.97;5019045;28;20060;-87